createdAt,value
2022-11-23T00:01:30.434Z,6.88
2022-11-23T00:04:00.235Z,6.77
2022-11-23T00:06:26.883Z,6.33
2022-11-23T00:08:54.345Z,6.66
2022-11-23T00:11:23.033Z,6.58
2022-11-23T00:13:49.585Z,6.54
2022-11-23T00:16:24.285Z,6.63
2022-11-23T00:18:59.249Z,6.27
2022-11-23T00:21:27.166Z,6.62
2022-11-23T00:23:53.865Z,6.28
2022-11-23T00:26:20.381Z,6.57
2022-11-23T00:28:47.285Z,6.71
2022-11-23T00:31:15.922Z,6.60
2022-11-23T00:33:43.260Z,6.64
2022-11-23T00:36:15.165Z,6.28
2022-11-23T00:38:43.257Z,6.49
2022-11-23T00:41:12.395Z,6.58
2022-11-23T00:43:38.838Z,6.71
2022-11-23T00:46:18.399Z,6.59
2022-11-23T00:48:46.776Z,6.38
2022-11-23T00:51:15.840Z,6.17
2022-11-23T00:53:43.087Z,6.15
2022-11-23T00:56:10.006Z,6.36
2022-11-23T00:58:38.759Z,6.16
2022-11-23T01:01:09.300Z,6.45
2022-11-23T01:03:37.958Z,6.53
2022-11-23T01:06:10.004Z,6.74
2022-11-23T01:08:37.405Z,6.62
2022-11-23T01:11:07.177Z,6.42
2022-11-23T01:13:33.883Z,6.76
2022-11-23T01:16:00.410Z,6.60
2022-11-23T01:18:27.099Z,6.35
2022-11-23T01:20:53.561Z,6.70
2022-11-23T01:23:20.193Z,6.75
2022-11-23T01:25:46.730Z,6.49
2022-11-23T01:28:13.189Z,6.37
2022-11-23T01:30:39.662Z,6.46
2022-11-23T01:33:06.122Z,6.55
2022-11-23T01:35:32.576Z,6.34
2022-11-23T01:37:59.030Z,6.30
2022-11-23T01:40:25.567Z,6.15
2022-11-23T01:42:56.934Z,6.38
2022-11-23T01:45:39.174Z,6.22
2022-11-23T01:48:19.877Z,6.41
2022-11-23T01:50:50.121Z,6.30
2022-11-23T01:53:16.814Z,5.89
2022-11-23T01:55:47.334Z,6.29
2022-11-23T01:58:19.038Z,6.15
2022-11-23T02:00:45.568Z,6.33
2022-11-23T02:03:12.041Z,5.72
2022-11-23T02:08:14.917Z,5.90
2022-11-23T02:10:41.370Z,5.90
2022-11-23T02:13:11.036Z,6.03
2022-11-23T02:15:37.872Z,5.82
2022-11-23T02:18:12.540Z,6.02
2022-11-23T02:20:39.189Z,5.93
2022-11-23T02:23:18.200Z,5.77
2022-11-23T02:25:45.020Z,5.90
2022-11-23T02:28:14.859Z,5.96
2022-11-23T02:30:42.606Z,5.84
2022-11-23T02:33:09.073Z,5.95
2022-11-23T02:35:35.590Z,5.95
2022-11-23T02:38:06.731Z,5.88
2022-11-23T02:40:36.024Z,5.86
2022-11-23T02:43:02.896Z,6.05
2022-11-23T02:45:46.432Z,6.08
2022-11-23T02:48:12.926Z,5.91
2022-11-23T02:50:39.353Z,5.81
2022-11-23T02:53:05.763Z,5.80
2022-11-23T02:55:32.371Z,6.08
2022-11-23T02:57:58.826Z,6.18
2022-11-23T03:00:25.533Z,5.93
2022-11-23T03:02:52.076Z,6.05
2022-11-23T03:05:18.512Z,6.03
2022-11-23T03:07:44.999Z,6.38
2022-11-23T03:10:11.532Z,6.64
2022-11-23T03:12:37.942Z,6.46
2022-11-23T03:15:04.909Z,6.49
2022-11-23T03:17:31.400Z,6.19
2022-11-23T03:19:57.919Z,6.33
2022-11-23T03:22:24.774Z,6.27
2022-11-23T03:24:51.211Z,6.55
2022-11-23T03:27:17.794Z,6.07
2022-11-23T03:29:44.265Z,6.20
2022-11-23T03:32:11.088Z,6.51
2022-11-23T03:34:37.630Z,6.80
2022-11-23T03:37:04.176Z,6.50
2022-11-23T03:39:30.862Z,6.48
2022-11-23T03:41:57.645Z,6.48
2022-11-23T03:44:24.090Z,6.50
2022-11-23T03:46:50.749Z,6.75
2022-11-23T03:49:17.255Z,6.45
2022-11-23T03:51:43.689Z,6.53
2022-11-23T03:54:10.132Z,6.47
2022-11-23T03:56:36.573Z,6.41
2022-11-23T03:59:03.059Z,6.66
2022-11-23T04:01:29.595Z,7.02
2022-11-23T04:03:56.049Z,6.32
2022-11-23T04:06:22.486Z,6.48
2022-11-23T04:08:48.944Z,6.52
2022-11-23T04:11:15.353Z,6.58
2022-11-23T04:13:41.788Z,6.59
2022-11-23T04:16:08.587Z,6.60
2022-11-23T04:18:35.298Z,6.71
2022-11-23T04:21:01.983Z,6.93
2022-11-23T04:23:28.483Z,6.94
2022-11-23T04:25:54.955Z,7.11
2022-11-23T04:28:21.414Z,6.38
2022-11-23T04:30:47.985Z,6.70
2022-11-23T04:33:14.434Z,6.92
2022-11-23T04:35:40.906Z,6.93
2022-11-23T04:38:07.359Z,6.65
2022-11-23T04:40:34.062Z,7.47
2022-11-23T04:43:02.039Z,6.83
2022-11-23T04:45:28.701Z,6.89
2022-11-23T04:47:55.228Z,6.93
2022-11-23T04:50:21.724Z,6.96
2022-11-23T04:52:48.194Z,6.74
2022-11-23T04:55:14.678Z,6.90
2022-11-23T04:57:41.090Z,6.71
2022-11-23T05:00:08.326Z,7.01
2022-11-23T05:02:34.816Z,6.86
2022-11-23T05:05:01.269Z,7.20
2022-11-23T05:07:27.712Z,7.16
2022-11-23T05:09:54.198Z,7.25
2022-11-23T05:12:20.653Z,6.96
2022-11-23T05:14:47.064Z,7.02
2022-11-23T05:17:13.556Z,7.05
2022-11-23T05:19:40.053Z,6.93
2022-11-23T05:22:06.465Z,7.14
2022-11-23T05:24:32.899Z,7.26
2022-11-23T05:26:59.384Z,7.25
2022-11-23T05:29:25.907Z,7.20
2022-11-23T05:31:52.356Z,7.17
2022-11-23T05:34:18.779Z,6.97
2022-11-23T05:36:45.259Z,7.44
2022-11-23T05:39:11.783Z,7.44
2022-11-23T05:41:38.216Z,7.04
2022-11-23T05:44:04.792Z,7.04
2022-11-23T05:46:31.276Z,7.06
2022-11-23T05:48:57.774Z,7.56
2022-11-23T05:51:24.242Z,7.73
2022-11-23T05:53:50.728Z,7.48
2022-11-23T05:56:17.174Z,7.18
2022-11-23T05:58:43.604Z,7.21
2022-11-23T06:01:10.005Z,7.27
2022-11-23T06:03:36.558Z,7.18
2022-11-23T06:06:06.515Z,7.20
2022-11-23T06:08:32.965Z,7.72
2022-11-23T06:11:02.620Z,7.63
2022-11-23T06:13:29.092Z,7.37
2022-11-23T06:15:55.487Z,7.16
2022-11-23T06:18:21.870Z,7.26
2022-11-23T06:20:48.269Z,7.49
2022-11-23T06:23:14.734Z,7.46
2022-11-23T06:25:41.356Z,7.55
2022-11-23T06:28:08.082Z,7.89
2022-11-23T06:30:34.511Z,7.48
2022-11-23T06:33:04.650Z,7.56
2022-11-23T06:35:31.340Z,7.64
2022-11-23T06:37:57.873Z,7.25
2022-11-23T06:40:24.338Z,7.16
2022-11-23T06:42:50.940Z,7.08
2022-11-23T06:45:17.491Z,7.30
2022-11-23T06:47:43.983Z,7.29
2022-11-23T06:50:10.757Z,7.64
2022-11-23T06:52:37.236Z,7.44
2022-11-23T06:55:03.818Z,7.25
2022-11-23T06:57:30.224Z,7.45
2022-11-23T06:59:56.653Z,7.55
2022-11-23T07:02:23.655Z,7.45
2022-11-23T07:04:52.849Z,7.80
2022-11-23T07:07:19.460Z,7.96
2022-11-23T07:09:45.928Z,7.66
2022-11-23T07:12:12.398Z,7.45
2022-11-23T07:14:38.822Z,7.74
2022-11-23T07:17:05.296Z,7.35
2022-11-23T07:19:31.929Z,7.72
2022-11-23T07:21:58.648Z,7.75
2022-11-23T07:24:25.082Z,7.51
2022-11-23T07:26:51.561Z,7.94
2022-11-23T07:29:18.002Z,7.61
2022-11-23T07:31:44.466Z,8.05
2022-11-23T07:34:11.161Z,7.70
2022-11-23T07:36:37.846Z,7.77
2022-11-23T07:39:04.518Z,7.64
2022-11-23T07:41:31.127Z,7.76
2022-11-23T07:43:57.622Z,7.92
2022-11-23T07:46:24.145Z,8.12
2022-11-23T07:48:50.580Z,8.08
2022-11-23T07:51:19.488Z,7.73
2022-11-23T07:53:47.070Z,7.87
2022-11-23T07:56:13.570Z,7.83
2022-11-23T07:58:40.135Z,8.01
2022-11-23T08:01:06.559Z,8.21
2022-11-23T08:03:33.125Z,8.05
2022-11-23T08:05:59.676Z,8.05
2022-11-23T08:08:26.162Z,8.24
2022-11-23T08:10:54.282Z,8.31
2022-11-23T08:13:22.157Z,8.16
2022-11-23T08:15:57.594Z,8.02
2022-11-23T08:18:24.630Z,8.33
2022-11-23T08:20:51.076Z,8.39
2022-11-23T08:23:17.772Z,8.39
2022-11-23T08:25:44.256Z,8.46
2022-11-23T08:28:10.974Z,8.84
2022-11-23T08:30:38.248Z,8.66
2022-11-23T08:33:06.266Z,8.84
2022-11-23T08:35:36.850Z,8.76
2022-11-23T08:38:08.078Z,8.88
2022-11-23T08:40:35.379Z,9.18
2022-11-23T08:43:02.533Z,8.97
2022-11-23T08:45:29.082Z,8.99
2022-11-23T08:48:02.543Z,9.16
2022-11-23T08:50:29.652Z,9.03
2022-11-23T08:52:57.404Z,9.09
2022-11-23T08:55:24.956Z,9.45
2022-11-23T08:57:55.752Z,10.33
2022-11-23T09:00:22.318Z,11.15
2022-11-23T09:02:48.816Z,11.51
2022-11-23T09:05:15.281Z,12.94
2022-11-23T09:07:41.856Z,13.42
2022-11-23T09:10:11.545Z,13.47
2022-11-23T09:12:41.626Z,14.71
2022-11-23T09:15:08.797Z,14.92
2022-11-23T09:17:35.510Z,15.36
2022-11-23T09:20:01.985Z,16.40
2022-11-23T09:22:28.719Z,16.98
2022-11-23T09:24:55.214Z,16.27
2022-11-23T09:27:21.726Z,16.22
2022-11-23T09:29:48.195Z,14.88
2022-11-23T09:32:14.594Z,13.93
2022-11-23T09:34:41.146Z,13.63
2022-11-23T09:37:07.729Z,12.62
2022-11-23T09:39:34.488Z,12.31
2022-11-23T09:42:09.994Z,12.41
2022-11-23T09:45:10.294Z,12.80
2022-11-23T09:47:36.845Z,12.05
2022-11-23T09:50:38.681Z,11.38
2022-11-23T09:53:12.246Z,11.89
2022-11-23T09:55:48.746Z,11.30
2022-11-23T09:58:18.888Z,11.59
2022-11-23T10:01:02.294Z,11.59
2022-11-23T10:03:32.870Z,11.39
2022-11-23T10:06:19.772Z,11.15
2022-11-23T10:08:55.198Z,11.24
2022-11-23T10:11:24.611Z,11.05
2022-11-23T10:14:09.052Z,11.23
2022-11-23T10:16:54.116Z,11.48
2022-11-23T10:19:47.156Z,11.52
2022-11-23T10:22:40.683Z,11.53
2022-11-23T10:25:18.409Z,11.15
2022-11-23T10:27:47.771Z,11.40
2022-11-23T10:30:16.202Z,11.50
2022-11-23T10:32:50.275Z,12.00
2022-11-23T10:35:38.261Z,12.26
2022-11-23T10:38:19.097Z,11.91
2022-11-23T10:41:08.686Z,11.97
2022-11-23T10:43:44.070Z,12.01
2022-11-23T10:46:49.065Z,12.10
2022-11-23T10:49:20.469Z,11.89
2022-11-23T10:51:55.402Z,11.87
2022-11-23T10:54:35.332Z,11.87
2022-11-23T10:57:21.749Z,11.94
2022-11-23T11:00:01.494Z,12.08
2022-11-23T11:02:28.520Z,12.03
2022-11-23T11:06:07.965Z,12.27
2022-11-23T11:08:27.353Z,12.18
2022-11-23T11:11:06.775Z,12.32
2022-11-23T11:13:45.354Z,12.43
2022-11-23T11:16:22.927Z,12.25
2022-11-23T11:18:49.385Z,12.39
2022-11-23T11:21:40.741Z,12.29
2022-11-23T11:24:18.005Z,12.34
2022-11-23T11:26:59.626Z,12.53
2022-11-23T11:29:38.764Z,12.46
2022-11-23T11:32:17.203Z,12.55
2022-11-23T11:34:49.432Z,12.36
2022-11-23T11:37:27.679Z,12.39
2022-11-23T11:40:00.459Z,12.65
2022-11-23T11:43:01.969Z,12.57
2022-11-23T11:45:38.348Z,12.94
2022-11-23T11:48:22.201Z,12.85
2022-11-23T11:51:05.603Z,12.89
2022-11-23T11:53:57.473Z,12.99
2022-11-23T11:56:38.876Z,12.71
2022-11-23T11:59:42.873Z,12.93
2022-11-23T12:02:31.052Z,12.34
2022-11-23T12:05:30.098Z,12.56
2022-11-23T12:08:46.289Z,12.91
2022-11-23T12:11:13.514Z,12.85
2022-11-23T12:13:44.219Z,12.90
2022-11-23T12:16:22.484Z,12.88
2022-11-23T12:19:16.739Z,12.68
2022-11-23T12:22:06.120Z,12.53
2022-11-23T12:24:32.522Z,12.73
2022-11-23T12:27:22.673Z,13.08
2022-11-23T12:30:07.663Z,13.03
2022-11-23T12:32:52.607Z,13.24
2022-11-23T12:35:37.104Z,12.77
2022-11-23T12:38:39.008Z,12.96
2022-11-23T12:41:29.639Z,13.05
2022-11-23T12:44:17.295Z,13.11
2022-11-23T12:47:23.828Z,12.70
2022-11-23T12:49:55.074Z,13.16
2022-11-23T12:52:21.435Z,13.20
2022-11-23T12:54:54.320Z,13.11
2022-11-23T12:57:25.275Z,13.32
2022-11-23T12:59:58.931Z,13.02
2022-11-23T13:02:58.531Z,13.27
2022-11-23T13:05:46.867Z,13.45
2022-11-23T13:08:21.655Z,13.06
2022-11-23T13:11:01.345Z,13.16
2022-11-23T13:13:53.908Z,12.74
2022-11-23T13:16:37.885Z,13.13
2022-11-23T13:19:46.517Z,12.73
2022-11-23T13:22:20.601Z,13.18
2022-11-23T13:25:08.669Z,13.05
2022-11-23T13:27:50.295Z,13.00
2022-11-23T13:33:38.016Z,13.04
2022-11-23T13:36:12.487Z,12.99
2022-11-23T13:38:43.607Z,12.93
2022-11-23T13:41:34.758Z,12.97
2022-11-23T13:44:21.870Z,13.18
2022-11-23T13:47:19.301Z,12.86
2022-11-23T13:50:07.724Z,12.93
2022-11-23T13:52:36.732Z,13.20
2022-11-23T13:55:20.341Z,12.92
2022-11-23T13:58:24.578Z,12.59
2022-11-23T14:00:52.364Z,12.79
2022-11-23T14:03:50.239Z,12.83
2022-11-23T14:06:32.823Z,12.77
2022-11-23T14:08:59.217Z,12.82
2022-11-23T14:11:27.158Z,13.05
2022-11-23T14:14:01.894Z,12.93
2022-11-23T14:16:53.344Z,12.67
2022-11-23T14:20:06.271Z,12.51
2022-11-23T14:23:07.821Z,12.45
2022-11-23T14:26:12.423Z,12.31
2022-11-23T14:29:06.163Z,12.17
2022-11-23T14:32:10.517Z,12.19
2022-11-23T14:34:52.504Z,12.38
2022-11-23T14:37:48.187Z,11.99
2022-11-23T14:40:27.383Z,12.19
2022-11-23T14:42:56.636Z,12.40
2022-11-23T14:45:33.660Z,12.44
2022-11-23T14:48:29.323Z,11.91
2022-11-23T14:50:57.191Z,11.67
2022-11-23T14:53:28.488Z,11.29
2022-11-23T14:55:56.020Z,11.31
2022-11-23T14:58:25.512Z,11.28
2022-11-23T15:00:53.095Z,11.32
2022-11-23T15:03:49.474Z,11.48
2022-11-23T15:06:16.904Z,10.93
2022-11-23T15:08:49.576Z,11.17
2022-11-23T15:11:21.433Z,10.97
2022-11-23T15:13:50.464Z,10.72
2022-11-23T15:16:20.296Z,10.81
2022-11-23T15:18:47.419Z,10.75
2022-11-23T15:21:26.602Z,10.43
2022-11-23T15:23:57.306Z,10.68
2022-11-23T15:26:46.886Z,10.68
2022-11-23T15:29:35.615Z,11.08
2022-11-23T15:32:35.242Z,10.40
2022-11-23T15:35:07.212Z,10.65
2022-11-23T15:37:41.041Z,10.57
2022-11-23T15:40:12.166Z,10.28
2022-11-23T15:42:39.015Z,10.60
2022-11-23T15:45:05.907Z,10.65
2022-11-23T15:47:32.563Z,10.38
2022-11-23T15:50:10.161Z,10.54
2022-11-23T15:52:38.135Z,10.16
2022-11-23T15:55:09.709Z,10.47
2022-11-23T15:57:38.546Z,10.48
2022-11-23T16:00:06.920Z,10.04
2022-11-23T16:02:33.486Z,9.82
2022-11-23T16:05:22.371Z,9.66
2022-11-23T16:08:00.193Z,9.82
2022-11-23T16:10:27.788Z,9.90
2022-11-23T16:13:05.921Z,9.78
2022-11-23T16:15:38.378Z,9.73
2022-11-23T16:18:15.146Z,9.64
2022-11-23T16:20:46.978Z,9.79
2022-11-23T16:23:22.402Z,9.52
2022-11-23T16:26:07.711Z,9.82
2022-11-23T16:28:37.052Z,9.62
2022-11-23T16:31:04.422Z,9.80
2022-11-23T16:33:31.014Z,10.02
2022-11-23T16:35:57.634Z,9.93
2022-11-23T16:38:24.576Z,10.18
2022-11-23T16:40:51.249Z,10.14
2022-11-23T16:43:18.386Z,9.83
2022-11-23T16:45:47.779Z,9.97
2022-11-23T16:48:26.288Z,9.93
2022-11-23T16:50:57.188Z,10.04
2022-11-23T16:53:26.759Z,9.79
2022-11-23T16:55:54.657Z,9.25
2022-11-23T16:58:22.134Z,9.27
2022-11-23T17:00:49.939Z,9.24
2022-11-23T17:03:17.886Z,9.34
2022-11-23T17:05:44.851Z,9.08
2022-11-23T17:08:11.587Z,8.93
2022-11-23T17:10:39.283Z,8.93
2022-11-23T17:13:10.954Z,9.20
2022-11-23T17:15:37.977Z,8.89
2022-11-23T17:18:04.715Z,8.94
2022-11-23T17:20:31.179Z,9.03
2022-11-23T17:23:00.973Z,8.70
2022-11-23T17:25:27.517Z,8.92
2022-11-23T17:27:53.933Z,9.04
2022-11-23T17:30:22.231Z,8.57
2022-11-23T17:32:49.592Z,8.93
2022-11-23T17:35:16.972Z,8.74
2022-11-23T17:37:43.802Z,8.66
2022-11-23T17:40:15.754Z,8.79
2022-11-23T17:42:42.215Z,8.93
2022-11-23T17:45:09.332Z,8.51
2022-11-23T17:47:36.347Z,8.84
2022-11-23T17:50:03.077Z,8.52
2022-11-23T17:52:29.561Z,8.75
2022-11-23T17:54:56.038Z,8.52
2022-11-23T17:57:24.352Z,8.61
2022-11-23T17:59:50.822Z,8.99
2022-11-23T18:02:19.165Z,8.56
2022-11-23T18:04:46.263Z,8.66
2022-11-23T18:07:14.726Z,8.49
2022-11-23T18:09:41.883Z,8.31
2022-11-23T18:12:09.741Z,8.17
2022-11-23T18:14:36.480Z,7.95
2022-11-23T18:17:03.250Z,8.09
2022-11-23T18:19:29.917Z,8.12
2022-11-23T18:21:56.487Z,8.14
2022-11-23T18:24:22.957Z,8.33
2022-11-23T18:26:49.406Z,8.35
2022-11-23T18:29:17.401Z,8.26
2022-11-23T18:31:44.175Z,8.45
2022-11-23T18:34:10.771Z,8.46
2022-11-23T18:36:37.399Z,8.16
2022-11-23T18:39:04.000Z,8.52
2022-11-23T18:41:30.513Z,7.83
2022-11-23T18:43:56.952Z,8.08
2022-11-23T18:46:23.490Z,7.75
2022-11-23T18:48:51.165Z,7.90
2022-11-23T18:51:18.143Z,8.00
2022-11-23T18:53:47.410Z,8.01
2022-11-23T18:56:13.961Z,7.84
2022-11-23T18:58:42.241Z,7.76
2022-11-23T19:01:12.145Z,8.21
2022-11-23T19:03:40.854Z,8.01
2022-11-23T19:06:08.618Z,8.27
2022-11-23T19:08:42.604Z,8.44
2022-11-23T19:11:17.462Z,8.27
2022-11-23T19:13:46.544Z,8.33
2022-11-23T19:16:21.255Z,8.32
2022-11-23T19:18:52.830Z,8.04
2022-11-23T19:21:21.306Z,8.09
2022-11-23T19:23:52.966Z,8.32
2022-11-23T19:26:20.198Z,8.14
2022-11-23T19:28:47.223Z,8.46
2022-11-23T19:31:22.542Z,8.08
2022-11-23T19:33:50.470Z,8.21
2022-11-23T19:36:19.697Z,8.02
2022-11-23T19:38:47.943Z,7.95
2022-11-23T19:41:15.316Z,7.94
2022-11-23T19:43:42.116Z,7.93
2022-11-23T19:46:11.890Z,7.84
2022-11-23T19:48:39.448Z,8.19
2022-11-23T19:51:08.250Z,8.06
2022-11-23T19:53:37.375Z,7.64
2022-11-23T19:56:13.211Z,7.64
2022-11-23T19:58:40.529Z,7.44
2022-11-23T20:01:12.683Z,7.75
2022-11-23T20:03:41.747Z,7.42
2022-11-23T20:06:12.992Z,7.39
2022-11-23T20:08:39.540Z,7.56
2022-11-23T20:11:11.142Z,7.17
2022-11-23T20:13:37.680Z,7.50
2022-11-23T20:16:31.833Z,6.97
2022-11-23T20:19:00.484Z,7.14
2022-11-23T20:21:28.507Z,6.98
2022-11-23T20:24:04.765Z,7.00
2022-11-23T20:26:32.704Z,7.22
2022-11-23T20:29:00.527Z,6.97
2022-11-23T20:31:29.617Z,6.90
2022-11-23T20:33:57.533Z,7.19
2022-11-23T20:36:29.743Z,7.11
2022-11-23T20:38:57.121Z,7.13
2022-11-23T20:41:58.566Z,6.92
2022-11-23T20:44:29.550Z,7.20
2022-11-23T20:47:30.216Z,7.07
2022-11-23T20:49:56.945Z,7.00
2022-11-23T20:52:23.379Z,7.24
2022-11-23T20:54:49.810Z,6.92
2022-11-23T20:57:16.306Z,7.13
2022-11-23T20:59:42.752Z,7.23
2022-11-23T21:02:09.676Z,6.98
2022-11-23T21:04:36.480Z,7.15
2022-11-23T21:07:03.068Z,7.22
2022-11-23T21:09:29.550Z,7.48
2022-11-23T21:12:14.229Z,7.20
2022-11-23T21:14:40.638Z,7.31
2022-11-23T21:17:07.225Z,7.28
2022-11-23T21:19:36.421Z,7.67
2022-11-23T21:22:05.880Z,7.29
2022-11-23T21:24:32.932Z,7.42
2022-11-23T21:26:59.527Z,7.52
2022-11-23T21:29:26.171Z,7.21
2022-11-23T21:31:52.680Z,7.21
2022-11-23T21:34:21.499Z,7.36
2022-11-23T21:36:48.594Z,7.63
2022-11-23T21:39:18.254Z,7.34
2022-11-23T21:41:45.690Z,7.56
2022-11-23T21:44:12.360Z,7.32
2022-11-23T21:46:40.816Z,7.31
2022-11-23T21:49:08.413Z,7.36
2022-11-23T21:51:58.762Z,7.02
2022-11-23T21:54:25.271Z,6.98
2022-11-23T21:56:51.773Z,7.38
2022-11-23T21:59:18.739Z,7.41
2022-11-23T22:01:45.362Z,7.27
2022-11-23T22:04:15.151Z,7.32
2022-11-23T22:06:42.198Z,7.30
2022-11-23T22:09:10.198Z,7.34
2022-11-23T22:11:40.918Z,7.38
2022-11-23T22:14:11.729Z,7.56
2022-11-23T22:16:47.259Z,7.27
2022-11-23T22:19:15.638Z,7.31
2022-11-23T22:21:43.906Z,7.38
2022-11-23T22:24:13.253Z,7.42
2022-11-23T22:26:39.809Z,7.30
2022-11-23T22:29:06.863Z,7.01
2022-11-23T22:31:34.757Z,7.03
2022-11-23T22:34:02.892Z,7.41
2022-11-23T22:36:29.921Z,6.89
2022-11-23T22:39:01.760Z,7.00
2022-11-23T22:41:29.969Z,7.16
2022-11-23T22:43:56.962Z,7.15
2022-11-23T22:46:25.269Z,7.20
2022-11-23T22:48:52.733Z,7.58
2022-11-23T22:51:23.371Z,7.44
2022-11-23T22:53:54.104Z,7.06
2022-11-23T22:56:21.416Z,7.22
2022-11-23T22:58:48.644Z,7.46
2022-11-23T23:01:21.627Z,7.63
2022-11-23T23:03:48.815Z,7.41
2022-11-23T23:06:18.892Z,7.01
2022-11-23T23:08:46.811Z,7.13
2022-11-23T23:11:14.917Z,7.59
2022-11-23T23:13:42.211Z,7.56
2022-11-23T23:16:12.779Z,7.76
2022-11-23T23:18:40.821Z,7.77
2022-11-23T23:21:14.329Z,7.79
2022-11-23T23:23:43.758Z,7.75
2022-11-23T23:26:11.859Z,7.68
2022-11-23T23:28:38.617Z,7.84
2022-11-23T23:31:07.683Z,7.61
2022-11-23T23:33:35.049Z,7.61
2022-11-23T23:36:05.205Z,7.65
2022-11-23T23:38:32.687Z,7.70
2022-11-23T23:40:59.765Z,7.74
2022-11-23T23:43:26.505Z,8.02
2022-11-23T23:45:57.664Z,7.95
2022-11-23T23:48:24.768Z,8.06
2022-11-23T23:50:51.587Z,7.94
2022-11-23T23:53:18.112Z,7.79
2022-11-23T23:55:55.407Z,7.74
2022-11-23T23:58:22.025Z,7.71
